createdAt,value
2019-03-11T00:00:57.966Z,95.90
2019-03-11T00:03:25.507Z,95.70
2019-03-11T00:05:53.199Z,95.10
2019-03-11T00:08:20.773Z,94.60
2019-03-11T00:10:48.150Z,93.90
2019-03-11T00:13:15.679Z,92.20
2019-03-11T00:15:43.275Z,90.60
2019-03-11T00:18:11.036Z,90.30
2019-03-11T00:20:38.588Z,84.10
2019-03-11T00:23:06.060Z,80.70
2019-03-11T00:25:33.574Z,81.50
2019-03-11T00:28:02.006Z,80.30
2019-03-11T00:30:30.335Z,81.20
2019-03-11T00:32:57.861Z,80.70
2019-03-11T00:35:25.371Z,76.80
2019-03-11T00:37:52.722Z,77.50
2019-03-11T00:40:22.347Z,76.90
2019-03-11T00:42:49.979Z,75.70
2019-03-11T00:45:17.574Z,76.20
2019-03-11T00:47:45.234Z,76.10
2019-03-11T00:50:12.922Z,75.30
2019-03-11T00:52:40.573Z,74.80
2019-03-11T00:55:09.752Z,72.60
2019-03-11T00:57:37.330Z,68.60
2019-03-11T01:00:11.053Z,69.30
2019-03-11T01:02:38.696Z,68.00
2019-03-11T01:05:06.296Z,69.90
2019-03-11T01:07:34.118Z,68.10
2019-03-11T01:10:02.379Z,67.10
2019-03-11T01:12:30.643Z,65.00
2019-03-11T01:14:58.108Z,66.40
2019-03-11T01:17:25.725Z,65.90
2019-03-11T01:19:54.090Z,67.40
2019-03-11T01:22:22.833Z,63.70
2019-03-11T01:24:50.495Z,64.60
2019-03-11T01:27:19.912Z,63.50
2019-03-11T01:29:47.447Z,64.60
2019-03-11T01:32:14.760Z,62.70
2019-03-11T01:34:42.413Z,63.70
2019-03-11T01:37:10.143Z,65.00
2019-03-11T01:39:37.804Z,65.40
2019-03-11T01:42:05.227Z,65.40
2019-03-11T01:44:34.129Z,67.10
2019-03-11T01:47:01.675Z,67.20
2019-03-11T01:49:30.433Z,67.90
2019-03-11T01:51:58.000Z,69.80
2019-03-11T01:54:26.270Z,72.30
2019-03-11T01:56:53.831Z,74.80
2019-03-11T01:59:21.365Z,76.00
2019-03-11T02:01:48.810Z,78.10
2019-03-11T02:04:16.236Z,79.90
2019-03-11T02:06:43.625Z,82.20
2019-03-11T02:09:12.141Z,83.90
2019-03-11T02:11:40.467Z,84.60
2019-03-11T02:14:08.003Z,86.50
2019-03-11T02:16:35.538Z,87.30
2019-03-11T02:19:03.089Z,87.80
2019-03-11T02:21:30.407Z,88.40
2019-03-11T02:23:57.768Z,89.00
2019-03-11T02:26:25.118Z,89.90
2019-03-11T02:28:52.436Z,90.10
2019-03-11T02:31:19.721Z,90.40
2019-03-11T02:33:47.272Z,91.10
2019-03-11T02:36:14.610Z,91.50
2019-03-11T02:38:42.053Z,91.30
2019-03-11T02:41:09.481Z,91.70
2019-03-11T02:43:36.909Z,91.90
2019-03-11T02:46:06.177Z,92.60
2019-03-11T02:48:33.620Z,93.20
2019-03-11T02:51:01.983Z,93.80
2019-03-11T02:53:29.420Z,93.80
2019-03-11T02:55:56.873Z,94.40
2019-03-11T02:58:24.198Z,94.50
2019-03-11T03:01:00.204Z,94.80
2019-03-11T03:03:41.510Z,95.10
2019-03-11T03:06:12.183Z,95.20
2019-03-11T03:08:39.723Z,95.20
2019-03-11T03:11:07.060Z,94.90
2019-03-11T03:13:34.787Z,94.70
2019-03-11T03:16:02.357Z,94.90
2019-03-11T03:18:29.874Z,94.50
2019-03-11T03:20:57.195Z,94.30
2019-03-11T03:23:24.495Z,93.80
2019-03-11T03:25:51.965Z,93.30
2019-03-11T03:28:19.320Z,93.50
2019-03-11T03:30:46.711Z,93.70
2019-03-11T03:33:14.373Z,93.70
2019-03-11T03:35:41.868Z,93.60
2019-03-11T03:38:11.366Z,93.50
2019-03-11T03:40:38.684Z,93.70
2019-03-11T03:43:08.572Z,93.70
2019-03-11T03:45:41.608Z,94.00
2019-03-11T03:48:10.126Z,93.70
2019-03-11T03:50:38.592Z,93.80
2019-03-11T03:53:07.558Z,93.50
2019-03-11T03:55:35.132Z,93.40
2019-03-11T03:58:02.485Z,93.30
2019-03-11T04:00:30.931Z,93.30
2019-03-11T04:02:58.419Z,93.40
2019-03-11T04:05:25.881Z,93.30
2019-03-11T04:07:54.406Z,93.10
2019-03-11T04:10:22.093Z,92.90
2019-03-11T04:12:49.728Z,93.00
2019-03-11T04:15:17.252Z,92.90
2019-03-11T04:17:45.412Z,93.10
2019-03-11T04:20:14.754Z,93.10
2019-03-11T04:22:42.167Z,93.10
2019-03-11T04:25:09.924Z,93.00
2019-03-11T04:27:37.826Z,93.00
2019-03-11T04:30:10.957Z,93.00
2019-03-11T04:32:38.496Z,93.20
2019-03-11T04:35:06.051Z,93.50
2019-03-11T04:37:34.789Z,93.90
2019-03-11T04:40:02.591Z,93.80
2019-03-11T04:42:30.147Z,93.70
2019-03-11T04:44:57.677Z,93.60
2019-03-11T04:47:25.326Z,93.90
2019-03-11T04:49:52.750Z,94.00
2019-03-11T04:52:20.283Z,94.40
2019-03-11T04:54:47.597Z,94.60
2019-03-11T04:57:15.547Z,94.40
2019-03-11T04:59:43.679Z,94.40
2019-03-11T05:02:11.082Z,94.60
2019-03-11T05:04:38.524Z,94.70
2019-03-11T05:07:05.906Z,94.80
2019-03-11T05:09:34.292Z,94.80
2019-03-11T05:12:01.782Z,94.70
2019-03-11T05:14:29.242Z,94.80
2019-03-11T05:16:56.933Z,94.80
2019-03-11T05:19:24.670Z,94.90
2019-03-11T05:21:54.001Z,94.90
2019-03-11T05:24:21.358Z,94.70
2019-03-11T05:26:49.358Z,94.50
2019-03-11T05:29:16.963Z,94.70
2019-03-11T05:31:45.198Z,94.30
2019-03-11T05:34:12.661Z,94.00
2019-03-11T05:36:40.131Z,93.80
2019-03-11T05:39:07.835Z,93.70
2019-03-11T05:41:35.336Z,93.70
2019-03-11T05:44:02.986Z,94.10
2019-03-11T05:46:30.448Z,94.10
2019-03-11T05:48:57.948Z,94.20
2019-03-11T05:51:31.479Z,93.70
2019-03-11T05:53:54.838Z,93.80
2019-03-11T05:56:23.079Z,93.80
2019-03-11T05:58:50.422Z,93.40
2019-03-11T06:01:17.865Z,93.50
2019-03-11T06:03:45.442Z,93.60
2019-03-11T06:06:12.870Z,92.90
2019-03-11T06:08:40.190Z,92.80
2019-03-11T06:11:07.508Z,92.80
2019-03-11T06:13:38.263Z,92.80
2019-03-11T06:16:05.608Z,92.00
2019-03-11T06:18:44.310Z,91.90
2019-03-11T06:21:29.864Z,91.30
2019-03-11T06:23:57.312Z,90.60
2019-03-11T06:26:24.774Z,90.40
2019-03-11T06:28:52.239Z,89.50
2019-03-11T06:31:19.674Z,89.90
2019-03-11T06:33:47.042Z,89.20
2019-03-11T06:36:14.823Z,88.70
2019-03-11T06:38:42.253Z,87.60
2019-03-11T06:41:09.568Z,87.90
2019-03-11T06:43:36.931Z,88.70
2019-03-11T06:46:04.458Z,88.90
2019-03-11T06:48:32.348Z,88.80
2019-03-11T06:50:59.902Z,89.40
2019-03-11T06:53:27.204Z,89.90
2019-03-11T06:58:43.850Z,89.50
2019-03-11T07:01:41.336Z,90.00
2019-03-11T07:04:08.728Z,90.30
2019-03-11T07:06:36.155Z,91.00
2019-03-11T07:09:06.897Z,91.30
2019-03-11T07:11:35.208Z,91.10
2019-03-11T07:14:02.735Z,91.80
2019-03-11T07:16:30.159Z,91.90
2019-03-11T07:18:57.678Z,92.20
2019-03-11T07:21:25.018Z,92.30
2019-03-11T07:23:52.460Z,92.50
2019-03-11T07:26:19.934Z,92.40
2019-03-11T07:28:47.233Z,92.00
2019-03-11T07:31:14.629Z,91.90
2019-03-11T07:33:42.107Z,92.10
2019-03-11T07:36:09.625Z,92.30
2019-03-11T07:38:36.934Z,92.30
2019-03-11T07:41:04.550Z,92.00
2019-03-11T07:43:31.896Z,91.20
2019-03-11T07:45:59.605Z,90.10
2019-03-11T07:48:27.356Z,88.50
2019-03-11T07:50:54.693Z,87.50
2019-03-11T07:53:22.317Z,84.70
2019-03-11T07:55:49.712Z,82.10
2019-03-11T07:58:17.035Z,80.00
2019-03-11T08:00:53.352Z,77.20
2019-03-11T08:03:13.980Z,75.20
2019-03-11T08:05:41.288Z,73.50
2019-03-11T08:08:09.913Z,74.10
2019-03-11T08:10:37.368Z,75.50
2019-03-11T08:13:07.909Z,77.40
2019-03-11T08:15:34.861Z,77.90
2019-03-11T08:18:03.484Z,79.60
2019-03-11T08:20:31.914Z,79.00
2019-03-11T08:22:59.383Z,80.10
2019-03-11T08:25:26.920Z,82.30
2019-03-11T08:27:54.443Z,84.10
2019-03-11T08:30:22.057Z,83.30
2019-03-11T08:32:49.677Z,84.80
2019-03-11T08:35:17.271Z,85.90
2019-03-11T08:37:44.906Z,86.00
2019-03-11T08:40:12.792Z,85.80
2019-03-11T08:42:40.426Z,80.80
2019-03-11T08:45:10.822Z,74.20
2019-03-11T08:47:38.132Z,69.70
2019-03-11T08:50:07.606Z,63.30
2019-03-11T08:52:35.061Z,59.50
2019-03-11T08:55:03.069Z,55.80
2019-03-11T08:57:30.618Z,52.50
2019-03-11T08:59:59.050Z,48.50
2019-03-11T09:02:26.899Z,46.00
2019-03-11T09:04:55.208Z,43.80
2019-03-11T09:07:22.631Z,41.70
2019-03-11T09:09:52.184Z,39.60
2019-03-11T09:12:19.538Z,39.50
2019-03-11T09:14:46.950Z,37.10
2019-03-11T09:17:14.283Z,35.50
2019-03-11T09:19:41.827Z,35.20
2019-03-11T09:22:09.359Z,34.80
2019-03-11T09:24:36.659Z,35.00
2019-03-11T09:27:04.379Z,33.80
2019-03-11T09:29:32.003Z,34.60
2019-03-11T09:31:59.305Z,33.00
2019-03-11T09:34:26.909Z,33.40
2019-03-11T09:36:54.409Z,32.50
2019-03-11T09:39:21.960Z,31.00
2019-03-11T09:41:49.276Z,30.40
2019-03-11T09:44:17.889Z,32.00
2019-03-11T09:46:45.292Z,32.80
2019-03-11T09:49:12.627Z,32.80
2019-03-11T09:51:40.178Z,31.50
2019-03-11T09:54:07.700Z,30.00
2019-03-11T09:56:42.927Z,28.30
2019-03-11T09:59:04.549Z,28.50
2019-03-11T10:01:31.864Z,27.90
2019-03-11T10:03:59.279Z,27.50
2019-03-11T10:06:26.716Z,28.00
2019-03-11T10:08:54.318Z,28.80
2019-03-11T10:11:21.795Z,29.80
2019-03-11T10:13:49.134Z,29.70
2019-03-11T10:16:16.927Z,29.10
2019-03-11T10:18:44.563Z,29.40
2019-03-11T10:21:12.036Z,31.30
2019-03-11T10:23:39.556Z,33.50
2019-03-11T10:26:06.997Z,35.60
2019-03-11T10:28:34.515Z,36.70
2019-03-11T10:31:01.869Z,38.40
2019-03-11T10:33:29.362Z,37.40
2019-03-11T10:35:56.717Z,36.90
2019-03-11T10:38:24.159Z,36.00
2019-03-11T10:40:51.683Z,35.60
2019-03-11T10:43:19.037Z,34.50
2019-03-11T10:45:46.499Z,34.70
2019-03-11T10:48:13.858Z,35.60
2019-03-11T10:50:41.397Z,35.90
2019-03-11T10:53:08.991Z,34.90
2019-03-11T10:55:36.427Z,30.80
2019-03-11T10:58:04.128Z,30.10
2019-03-11T11:00:32.059Z,28.70
2019-03-11T11:02:59.578Z,27.10
2019-03-11T11:05:27.246Z,25.30
2019-03-11T11:07:55.854Z,23.80
2019-03-11T11:10:23.403Z,23.00
2019-03-11T11:12:51.156Z,22.90
2019-03-11T11:15:20.252Z,21.40
2019-03-11T11:17:47.838Z,20.70
2019-03-11T11:20:16.302Z,21.20
2019-03-11T11:22:43.847Z,21.40
2019-03-11T11:25:14.405Z,22.30
2019-03-11T11:27:41.931Z,22.50
2019-03-11T11:30:13.801Z,22.60
2019-03-11T11:32:41.438Z,22.90
2019-03-11T11:35:09.010Z,23.60
2019-03-11T11:40:42.326Z,24.30
2019-03-11T11:43:09.755Z,25.20
2019-03-11T11:45:37.274Z,26.20
2019-03-11T11:48:08.233Z,25.70
2019-03-11T11:50:35.022Z,24.70
2019-03-11T11:53:05.603Z,23.60
2019-03-11T11:55:33.217Z,22.80
2019-03-11T11:58:01.294Z,22.30
2019-03-11T12:00:29.657Z,21.70
2019-03-11T12:02:57.187Z,21.50
2019-03-11T12:05:25.879Z,23.30
2019-03-11T12:07:53.547Z,24.40
2019-03-11T12:10:21.330Z,25.60
2019-03-11T12:12:48.923Z,27.20
2019-03-11T12:15:16.644Z,28.10
2019-03-11T12:17:44.489Z,27.30
2019-03-11T12:20:15.776Z,26.70
2019-03-11T12:22:43.361Z,26.00
2019-03-11T12:25:12.866Z,26.70
2019-03-11T12:27:40.566Z,28.40
2019-03-11T12:30:13.304Z,29.00
2019-03-11T12:32:41.885Z,31.10
2019-03-11T12:35:09.785Z,33.20
2019-03-11T12:37:37.283Z,34.90
2019-03-11T12:40:05.485Z,33.30
2019-03-11T12:42:33.082Z,30.50
2019-03-11T12:45:00.421Z,26.10
2019-03-11T12:47:27.933Z,24.10
2019-03-11T12:49:55.585Z,23.60
2019-03-11T12:52:23.174Z,22.50
2019-03-11T12:54:52.471Z,22.90
2019-03-11T12:57:19.976Z,22.50
2019-03-11T12:59:47.592Z,22.20
2019-03-11T13:02:15.131Z,21.20
2019-03-11T13:04:42.512Z,20.80
2019-03-11T13:07:10.026Z,20.50
2019-03-11T13:09:37.494Z,20.30
2019-03-11T13:12:04.966Z,20.00
2019-03-11T13:14:32.514Z,19.50
2019-03-11T13:16:59.866Z,19.70
2019-03-11T13:19:27.322Z,20.60
2019-03-11T13:21:54.789Z,22.20
2019-03-11T13:24:22.261Z,23.60
2019-03-11T13:26:49.822Z,24.20
2019-03-11T13:29:17.279Z,24.60
2019-03-11T13:31:44.805Z,24.40
2019-03-11T13:34:12.442Z,23.50
2019-03-11T13:36:39.792Z,22.90
2019-03-11T13:39:08.713Z,21.80
2019-03-11T13:41:36.165Z,21.50
2019-03-11T13:44:03.733Z,21.60
2019-03-11T13:46:31.286Z,20.90
2019-03-11T13:48:58.638Z,20.50
2019-03-11T13:51:26.167Z,20.70
2019-03-11T13:53:53.626Z,20.90
2019-03-11T13:56:21.274Z,22.30
2019-03-11T13:58:48.918Z,24.20
2019-03-11T14:01:16.460Z,25.90
2019-03-11T14:03:43.864Z,25.80
2019-03-11T14:06:11.414Z,25.50
2019-03-11T14:08:38.731Z,25.50
2019-03-11T14:11:06.433Z,26.00
2019-03-11T14:13:33.885Z,26.80
2019-03-11T14:16:01.384Z,27.60
2019-03-11T14:18:28.832Z,28.10
2019-03-11T14:20:56.293Z,28.60
2019-03-11T14:23:23.721Z,29.20
2019-03-11T14:25:51.145Z,30.00
2019-03-11T14:28:18.910Z,30.70
2019-03-11T14:30:46.402Z,31.30
2019-03-11T14:33:14.615Z,32.20
2019-03-11T14:35:43.184Z,33.00
2019-03-11T14:38:11.785Z,33.80
2019-03-11T14:40:40.022Z,34.60
2019-03-11T14:43:07.614Z,35.70
2019-03-11T14:45:35.139Z,36.60
2019-03-11T14:48:02.485Z,37.50
2019-03-11T14:50:30.173Z,37.90
2019-03-11T14:52:57.763Z,38.60
2019-03-11T14:55:25.211Z,39.50
2019-03-11T14:57:52.653Z,40.20
2019-03-11T15:00:20.240Z,41.00
2019-03-11T15:02:48.539Z,41.60
2019-03-11T15:05:16.643Z,42.70
2019-03-11T15:07:46.256Z,43.30
2019-03-11T15:10:14.606Z,44.20
2019-03-11T15:12:42.479Z,45.10
2019-03-11T15:15:12.662Z,46.00
2019-03-11T15:17:40.318Z,46.70
2019-03-11T15:20:08.285Z,47.80
2019-03-11T15:22:35.914Z,48.40
2019-03-11T15:25:04.104Z,49.30
2019-03-11T15:27:33.241Z,50.50
2019-03-11T15:30:01.018Z,52.30
2019-03-11T15:32:28.581Z,53.00
2019-03-11T15:34:56.143Z,53.90
2019-03-11T15:37:23.545Z,55.00
2019-03-11T15:39:51.256Z,56.20
2019-03-11T15:42:18.858Z,57.30
2019-03-11T15:44:46.303Z,57.80
2019-03-11T15:47:14.071Z,58.70
2019-03-11T15:49:41.522Z,59.70
2019-03-11T15:52:09.079Z,60.40
2019-03-11T15:54:36.747Z,62.00
2019-03-11T15:57:05.701Z,63.70
2019-03-11T15:59:34.640Z,65.60
2019-03-11T16:02:02.431Z,69.50
2019-03-11T16:04:30.863Z,74.70
2019-03-11T16:06:59.221Z,77.50
2019-03-11T16:09:27.620Z,81.60
2019-03-11T16:11:55.054Z,85.20
2019-03-11T16:14:22.711Z,89.10
2019-03-11T16:16:50.612Z,90.30
2019-03-11T16:20:10.411Z,90.90
2019-03-11T16:22:37.862Z,91.50
2019-03-11T16:25:06.505Z,92.20
2019-03-11T16:27:34.198Z,92.60
2019-03-11T16:30:02.101Z,93.40
2019-03-11T16:32:30.320Z,93.60
2019-03-11T16:34:58.882Z,94.00
2019-03-11T16:37:26.660Z,94.40
2019-03-11T16:39:54.046Z,95.30
2019-03-11T16:42:22.392Z,95.90
2019-03-11T16:44:50.702Z,96.50
2019-03-11T16:47:18.026Z,97.10
2019-03-11T16:49:45.483Z,97.90
2019-03-11T16:52:12.891Z,98.30
2019-03-11T16:54:40.496Z,98.90
2019-03-11T16:57:08.019Z,99.10
2019-03-11T16:59:35.443Z,99.20
2019-03-11T17:02:03.287Z,99.30
2019-03-11T17:04:30.768Z,99.50
2019-03-11T17:06:58.405Z,99.60
2019-03-11T17:09:29.153Z,99.30
2019-03-11T17:11:56.553Z,99.30
2019-03-11T17:14:24.901Z,99.40
2019-03-11T17:16:52.362Z,99.30
2019-03-11T17:19:20.121Z,99.20
2019-03-11T17:21:47.434Z,99.10
2019-03-11T17:24:15.094Z,99.10
2019-03-11T17:26:42.407Z,99.10
2019-03-11T17:29:09.907Z,99.00
2019-03-11T17:31:37.325Z,99.10
2019-03-11T17:34:05.710Z,99.10
2019-03-11T17:36:33.163Z,99.10
2019-03-11T17:39:00.620Z,99.30
2019-03-11T17:41:28.610Z,99.10
2019-03-11T17:43:56.217Z,99.00
2019-03-11T17:46:24.598Z,99.10
2019-03-11T17:48:52.799Z,99.10
2019-03-11T17:51:20.438Z,99.30
2019-03-11T17:53:47.990Z,99.40
2019-03-11T17:56:15.754Z,99.70
2019-03-11T17:58:44.081Z,99.70
2019-03-11T18:01:11.815Z,99.90
2019-03-11T18:03:39.392Z,99.90
2019-03-11T18:06:11.660Z,99.90
2019-03-11T18:08:36.335Z,99.90
2019-03-11T18:11:03.791Z,99.90
2019-03-11T18:13:31.357Z,99.90
2019-03-11T18:15:58.790Z,99.90
2019-03-11T18:18:32.956Z,99.90
2019-03-11T18:20:56.599Z,99.90
2019-03-11T18:23:24.968Z,99.90
2019-03-11T18:25:52.757Z,99.90
2019-03-11T18:28:20.421Z,99.90
2019-03-11T18:30:48.013Z,99.90
2019-03-11T18:33:16.902Z,99.90
2019-03-11T18:35:47.179Z,99.90
2019-03-11T18:38:14.920Z,99.90
2019-03-11T18:40:42.652Z,99.90
2019-03-11T18:43:20.092Z,99.90
2019-03-11T18:45:40.286Z,99.90
2019-03-11T18:48:07.733Z,99.90
2019-03-11T18:50:35.753Z,99.90
2019-03-11T18:53:04.166Z,99.90
2019-03-11T18:55:31.997Z,99.90
2019-03-11T18:57:59.388Z,99.90
2019-03-11T19:00:28.371Z,99.90
2019-03-11T19:02:56.053Z,99.90
2019-03-11T19:05:23.654Z,99.90
2019-03-11T19:07:55.425Z,99.90
2019-03-11T19:10:23.220Z,99.90
2019-03-11T19:12:53.365Z,99.90
2019-03-11T19:15:21.294Z,99.90
2019-03-11T19:17:48.830Z,99.90
2019-03-11T19:20:17.395Z,99.90
2019-03-11T19:22:44.887Z,99.90
2019-03-11T19:25:12.890Z,99.90
2019-03-11T19:31:24.236Z,99.90
2019-03-11T19:33:51.828Z,99.90
2019-03-11T19:36:19.500Z,99.90
2019-03-11T19:38:47.282Z,99.90
2019-03-11T19:41:14.835Z,99.90
2019-03-11T19:43:42.359Z,99.90
2019-03-11T19:46:09.981Z,99.90
2019-03-11T19:48:37.446Z,99.90
2019-03-11T19:51:07.548Z,99.90
2019-03-11T19:53:35.273Z,99.90
2019-03-11T19:56:02.726Z,99.90
2019-03-11T19:58:30.319Z,99.90
2019-03-11T20:00:57.838Z,99.90
2019-03-11T20:03:30.274Z,99.90
2019-03-11T20:05:54.956Z,99.90
2019-03-11T20:08:22.391Z,99.90
2019-03-11T20:10:50.033Z,99.90
2019-03-11T20:13:17.832Z,99.90
2019-03-11T20:15:46.510Z,99.90
2019-03-11T20:18:15.258Z,99.90
2019-03-11T20:20:46.630Z,99.90
2019-03-11T20:23:17.000Z,99.90
2019-03-11T20:25:54.184Z,99.90
2019-03-11T20:28:23.320Z,99.90
2019-03-11T20:30:51.019Z,99.90
2019-03-11T20:33:19.843Z,99.90
2019-03-11T20:35:47.662Z,99.90
2019-03-11T20:38:15.905Z,99.90
2019-03-11T20:40:43.352Z,99.90
2019-03-11T20:43:11.513Z,99.90
2019-03-11T20:45:39.493Z,99.90
2019-03-11T20:48:07.065Z,99.90
2019-03-11T20:50:42.108Z,99.90
2019-03-11T20:53:05.615Z,99.90
2019-03-11T20:55:34.196Z,99.90
2019-03-11T20:58:01.892Z,99.90
2019-03-11T21:00:30.174Z,99.90
2019-03-11T21:03:01.801Z,99.90
2019-03-11T21:05:31.024Z,99.90
2019-03-11T21:07:59.416Z,99.90
2019-03-11T21:10:27.086Z,99.90
2019-03-11T21:12:56.334Z,99.90
2019-03-11T21:15:23.913Z,99.90
2019-03-11T21:17:55.949Z,99.90
2019-03-11T21:20:24.401Z,99.90
2019-03-11T21:22:51.960Z,99.90
2019-03-11T21:25:21.300Z,99.90
2019-03-11T21:27:48.932Z,99.90
2019-03-11T21:30:18.552Z,99.90
2019-03-11T21:32:46.207Z,99.90
2019-03-11T21:35:14.485Z,99.90
2019-03-11T21:37:42.318Z,99.90
2019-03-11T21:40:12.583Z,99.90
2019-03-11T21:42:40.484Z,99.90
2019-03-11T21:45:09.876Z,99.90
2019-03-11T21:47:39.474Z,99.90
2019-03-11T21:50:10.369Z,99.90
2019-03-11T21:52:37.992Z,99.90
2019-03-11T21:55:05.744Z,99.90
2019-03-11T21:57:33.221Z,99.90
2019-03-11T22:00:00.892Z,99.90
2019-03-11T22:02:28.348Z,99.90
2019-03-11T22:04:56.033Z,99.90
2019-03-11T22:07:24.423Z,99.90
2019-03-11T22:09:51.867Z,99.90
2019-03-11T22:12:19.739Z,99.90
2019-03-11T22:14:47.580Z,99.90
2019-03-11T22:17:14.932Z,99.90
2019-03-11T22:19:42.285Z,99.70
2019-03-11T22:22:09.867Z,99.70
2019-03-11T22:24:37.296Z,99.70
2019-03-11T22:27:05.166Z,99.70
2019-03-11T22:29:32.629Z,99.60
2019-03-11T22:32:00.107Z,99.50
2019-03-11T22:34:27.849Z,99.40
2019-03-11T22:36:56.139Z,99.40
2019-03-11T22:39:23.652Z,99.40
2019-03-11T22:41:52.751Z,99.20
2019-03-11T22:44:20.366Z,99.20
2019-03-11T22:46:47.783Z,99.30
2019-03-11T22:49:15.378Z,99.60
2019-03-11T22:51:42.864Z,99.60
2019-03-11T22:54:10.314Z,99.70
2019-03-11T22:56:37.697Z,99.90
2019-03-11T22:59:05.067Z,99.90
2019-03-11T23:01:32.621Z,99.90
2019-03-11T23:04:00.203Z,99.90
2019-03-11T23:06:27.640Z,99.90
2019-03-11T23:08:54.992Z,99.90
2019-03-11T23:11:23.577Z,99.90
2019-03-11T23:13:50.973Z,99.90
2019-03-11T23:16:20.482Z,99.90
2019-03-11T23:18:48.267Z,99.90
2019-03-11T23:21:15.626Z,99.90
2019-03-11T23:23:43.081Z,99.90
2019-03-11T23:26:10.648Z,99.90
2019-03-11T23:28:38.210Z,99.90
2019-03-11T23:31:05.708Z,99.90
2019-03-11T23:33:33.404Z,99.90
2019-03-11T23:36:01.146Z,99.90
2019-03-11T23:38:28.847Z,99.90
2019-03-11T23:40:56.344Z,99.90
2019-03-11T23:43:23.821Z,99.90
2019-03-11T23:45:51.397Z,99.90
2019-03-11T23:48:18.905Z,99.90
2019-03-11T23:50:46.645Z,99.90
2019-03-11T23:53:14.023Z,99.90
2019-03-11T23:55:41.520Z,99.90
2019-03-11T23:58:09.202Z,99.90
